Salisbury, Massachusetts
Current Conditions -  °F | °C
As of 9:54 AM on Sunday 23 Nov 2014 (Local Time) from KLWM Reporting Station
Clear Clear  
Wind Chill: 45°   Ceiling: Unl
Heat Index: 49°   Visibility: 10mi
Dew Point: 30°   Wind: 9mph
Humidity: 48%   Direction: 230°SW
Pressure: 30.14"   Gusts: NA
Location:  42.83°N, 70.84°W
Report Text: KLWM 231454Z 23008KT 10SM CLR 09/M01 A3014 RMK AO2 SLP205 T00941011 52015
Loading
Personal Weather Stations






























Interactive Weather Map New forecast layout! Learn more

10-Day Weather Forecast

Advertisements
Track Severe Weather on mobile